Time;durP1;ratioP1;P1;durP2;ratioP2;P2;SDS_P1;SDS_P2;PMS_P1;PMS_P2;Temp;Humidity;BMP_temperature;BMP_pressure;BME280_temperature;BME280_humidity;BME280_pressure;Samples;Min_cycle;Max_cycle;Signal;HPM_P1;HPM_P2
2021/03/27 00:02:26;;;;;;;;;;;13.70;41.30;;;;;;4951571;28;74525;-66
2021/03/27 00:04:56;;;;;;;;;;;13.60;41.20;;;;;;4950973;28;75212;-65
2021/03/27 00:07:24;;;;;;;;;;;13.60;41.50;;;;;;4949632;28;76363;-67
2021/03/27 00:09:52;;;;;;;;;;;13.50;41.50;;;;;;4950890;28;74493;-67
2021/03/27 00:12:18;;;;;;;;;;;13.60;41.40;;;;;;4949408;28;75322;-67
2021/03/27 00:14:45;;;;;;;;;;;13.50;41.40;;;;;;4951281;28;74795;-67
2021/03/27 00:17:15;;;;;;;;;;;13.50;41.60;;;;;;4950820;28;75125;-67
2021/03/27 00:19:42;;;;;;;;;;;13.40;41.60;;;;;;4949486;28;75334;-68
2021/03/27 00:22:18;;;;;;;;;;;13.40;41.60;;;;;;4950888;28;75397;-69
2021/03/27 00:24:55;;;;;;;;;;;13.40;41.80;;;;;;4950899;28;75365;-68
2021/03/27 00:27:23;;;;;;;;;;;13.40;42.20;;;;;;4951277;28;74484;-69
2021/03/27 00:29:52;;;;;;;;;;;13.30;42.30;;;;;;4951959;28;75679;-69
2021/03/27 00:32:44;;;;;;;;;;;13.20;42.70;;;;;;4951290;28;74365;-69
2021/03/27 00:35:13;;;;;;;;;;;13.20;43.20;;;;;;4950801;28;75635;-68
2021/03/27 00:37:40;;;;;;;;;;;13.10;43.50;;;;;;4950549;28;75637;-69
2021/03/27 00:40:08;;;;;;;;;;;13.00;43.60;;;;;;4950643;28;75073;-69
2021/03/27 00:42:37;;;;;;;;;;;13.00;43.20;;;;;;4950718;28;75635;-68
2021/03/27 00:45:06;;;;;;;;;;;13.00;43.50;;;;;;4950778;28;74692;-69
2021/03/27 00:47:33;;;;;;;;;;;12.90;43.40;;;;;;4947799;28;78592;-68
2021/03/27 00:50:05;;;;;;;;;;;12.90;43.40;;;;;;4949168;28;76827;-68
2021/03/27 00:52:35;;;;;;;;;;;12.90;43.70;;;;;;4950579;28;75376;-68
2021/03/27 00:55:09;;;;;;;;;;;12.80;43.80;;;;;;4950703;28;75171;-67
2021/03/27 00:57:37;;;;;;;;;;;12.80;43.80;;;;;;4950355;28;74786;-69
2021/03/27 01:00:21;;;;;;;;;;;12.70;44.20;;;;;;4950501;28;75353;-69
2021/03/27 01:02:51;;;;;;;;;;;12.70;44.50;;;;;;4950278;28;75672;-69
2021/03/27 01:05:20;;;;;;;;;;;12.60;44.30;;;;;;4948568;28;76631;-68
2021/03/27 01:07:47;;;;;;;;;;;12.50;44.70;;;;;;4950218;28;75191;-68
2021/03/27 01:10:25;;;;;;;;;;;12.50;44.60;;;;;;4950357;28;75277;-67
2021/03/27 01:12:52;;;;;;;;;;;12.40;44.70;;;;;;4948458;28;77973;-67
2021/03/27 01:15:21;;;;;;;;;;;12.40;45.80;;;;;;4948577;28;77734;-67
2021/03/27 01:17:48;;;;;;;;;;;12.30;45.80;;;;;;4949735;28;75411;-69
2021/03/27 01:20:18;;;;;;;;;;;12.20;46.20;;;;;;4948436;28;77234;-68
2021/03/27 01:22:45;;;;;;;;;;;12.00;46.70;;;;;;4949988;28;75295;-69
2021/03/27 01:25:11;;;;;;;;;;;11.90;47.40;;;;;;4950282;28;75184;-67
2021/03/27 01:27:52;;;;;;;;;;;11.80;47.30;;;;;;4950201;28;77576;-66
2021/03/27 01:30:44;;;;;;;;;;;11.70;47.60;;;;;;4949855;28;74704;-67
2021/03/27 01:33:19;;;;;;;;;;;11.60;47.40;;;;;;4950288;28;75132;-68
2021/03/27 01:35:46;;;;;;;;;;;11.50;47.30;;;;;;4950708;28;74364;-68
2021/03/27 01:38:15;;;;;;;;;;;11.30;47.40;;;;;;4948469;28;76608;-67
2021/03/27 01:40:59;;;;;;;;;;;11.30;47.60;;;;;;4948362;28;77002;-67
2021/03/27 01:43:32;;;;;;;;;;;11.20;48.60;;;;;;4949902;28;74440;-65
2021/03/27 01:46:13;;;;;;;;;;;11.10;48.10;;;;;;4948578;28;77745;-67
2021/03/27 01:48:46;;;;;;;;;;;11.10;47.90;;;;;;4949489;28;76199;-65
2021/03/27 01:51:30;;;;;;;;;;;11.00;48.40;;;;;;4948031;28;78028;-65
2021/03/27 01:53:59;;;;;;;;;;;11.00;48.20;;;;;;4949744;28;75272;-66
2021/03/27 01:56:35;;;;;;;;;;;10.90;48.60;;;;;;4949762;28;75367;-68
2021/03/27 01:59:00;;;;;;;;;;;10.90;49.40;;;;;;4951435;28;75382;-67
2021/03/27 02:01:35;;;;;;;;;;;10.70;50.20;;;;;;4950779;28;77229;-67
2021/03/27 02:04:04;;;;;;;;;;;10.60;50.00;;;;;;4952321;28;75320;-69
2021/03/27 02:06:33;;;;;;;;;;;10.60;49.90;;;;;;4951123;28;76302;-67
2021/03/27 02:09:12;;;;;;;;;;;10.60;50.20;;;;;;4950732;28;74464;-67
2021/03/27 02:12:08;;;;;;;;;;;10.50;50.30;;;;;;4950853;28;74713;-65
2021/03/27 02:14:34;;;;;;;;;;;10.50;50.90;;;;;;4955660;28;75395;-67
2021/03/27 02:17:09;;;;;;;;;;;10.40;51.50;;;;;;4950774;28;76505;-68
2021/03/27 02:19:53;;;;;;;;;;;10.40;50.90;;;;;;4950926;28;78555;-66
2021/03/27 02:22:19;;;;;;;;;;;10.40;50.60;;;;;;4950555;28;76679;-67
2021/03/27 02:25:03;;;;;;;;;;;10.50;51.20;;;;;;4950749;28;76305;-68
2021/03/27 02:27:29;;;;;;;;;;;10.50;50.30;;;;;;4952304;28;75207;-66
2021/03/27 02:29:59;;;;;;;;;;;10.50;50.50;;;;;;4952565;28;75042;-68
2021/03/27 02:32:34;;;;;;;;;;;10.50;50.30;;;;;;4950894;28;76207;-67
2021/03/27 02:35:18;;;;;;;;;;;10.50;50.90;;;;;;4952271;28;75198;-67
2021/03/27 02:38:00;;;;;;;;;;;10.40;50.60;;;;;;4951809;28;75222;-68
2021/03/27 02:40:28;;;;;;;;;;;10.50;51.50;;;;;;4952118;28;74858;-66
2021/03/27 02:42:56;;;;;;;;;;;10.40;51.80;;;;;;4951336;28;74568;-67
2021/03/27 02:45:25;;;;;;;;;;;10.40;50.80;;;;;;4950439;28;76484;-67
2021/03/27 02:47:59;;;;;;;;;;;10.50;50.50;;;;;;4951999;28;75203;-65
2021/03/27 02:50:43;;;;;;;;;;;10.50;51.60;;;;;;4951841;28;75651;-68
2021/03/27 02:53:27;;;;;;;;;;;10.40;50.80;;;;;;4950585;28;77421;-68
2021/03/27 02:56:19;;;;;;;;;;;10.40;51.10;;;;;;4951666;28;75130;-67
2021/03/27 02:58:44;;;;;;;;;;;10.40;51.10;;;;;;4952260;28;75760;-68
2021/03/27 03:01:10;;;;;;;;;;;10.50;51.30;;;;;;4952038;28;74586;-68
2021/03/27 03:04:11;;;;;;;;;;;10.50;50.70;;;;;;4951756;28;75171;-67
2021/03/27 03:06:45;;;;;;;;;;;10.50;51.80;;;;;;4968477;28;75831;-68
2021/03/27 03:09:25;;;;;;;;;;;10.50;51.40;;;;;;4953438;28;75322;-67
2021/03/27 03:11:56;;;;;;;;;;;10.60;51.10;;;;;;4951912;28;75102;-68
2021/03/27 03:14:28;;;;;;;;;;;10.60;51.60;;;;;;4951932;28;75340;-66
2021/03/27 03:16:56;;;;;;;;;;;10.60;51.60;;;;;;4951666;28;75154;-67
2021/03/27 03:19:27;;;;;;;;;;;10.50;51.10;;;;;;4950226;28;76665;-66
2021/03/27 03:22:22;;;;;;;;;;;10.50;51.80;;;;;;4950008;28;75453;-68
2021/03/27 03:24:53;;;;;;;;;;;10.50;51.50;;;;;;4954677;28;74657;-68
2021/03/27 03:27:37;;;;;;;;;;;10.40;51.80;;;;;;4950128;28;75499;-68
2021/03/27 03:30:12;;;;;;;;;;;10.40;51.60;;;;;;4949654;28;76222;-68
2021/03/27 03:32:48;;;;;;;;;;;10.40;51.90;;;;;;4950046;28;77120;-68
2021/03/27 03:35:27;;;;;;;;;;;10.40;51.70;;;;;;4951768;28;75348;-68
2021/03/27 03:37:56;;;;;;;;;;;10.40;51.70;;;;;;4951609;28;75239;-69
2021/03/27 03:40:24;;;;;;;;;;;10.40;51.80;;;;;;4951407;28;74980;-68
2021/03/27 03:42:58;;;;;;;;;;;10.40;52.20;;;;;;4951758;28;75358;-68
2021/03/27 03:45:27;;;;;;;;;;;10.30;53.00;;;;;;4951681;28;75374;-67
2021/03/27 03:47:52;;;;;;;;;;;10.20;52.80;;;;;;4949741;28;77708;-68
2021/03/27 03:50:47;;;;;;;;;;;10.20;52.50;;;;;;4951497;28;75069;-66
2021/03/27 03:53:25;;;;;;;;;;;10.10;52.50;;;;;;4965978;28;74609;-65
2021/03/27 03:56:02;;;;;;;;;;;10.10;53.10;;;;;;4951190;28;75454;-66
2021/03/27 03:58:31;;;;;;;;;;;10.00;53.40;;;;;;4950774;28;75542;-67
2021/03/27 04:01:19;;;;;;;;;;;9.90;54.30;;;;;;4951534;28;75118;-68
2021/03/27 04:03:56;;;;;;;;;;;9.90;53.60;;;;;;4950845;28;75824;-68
2021/03/27 04:06:24;;;;;;;;;;;9.90;53.90;;;;;;4951778;28;74391;-67
2021/03/27 04:08:56;;;;;;;;;;;9.90;55.00;;;;;;4951120;28;75107;-68
2021/03/27 04:11:37;;;;;;;;;;;9.90;54.50;;;;;;4951199;28;75130;-68
2021/03/27 04:14:05;;;;;;;;;;;10.00;54.20;;;;;;4949849;28;77085;-69
2021/03/27 04:16:33;;;;;;;;;;;9.90;54.10;;;;;;4949299;28;76862;-68
2021/03/27 04:19:09;;;;;;;;;;;10.00;54.40;;;;;;4951228;28;75167;-68
2021/03/27 04:21:42;;;;;;;;;;;10.00;54.30;;;;;;4950654;28;75625;-68
2021/03/27 04:24:09;;;;;;;;;;;10.00;54.90;;;;;;4949798;28;76287;-65
2021/03/27 04:26:37;;;;;;;;;;;10.10;55.60;;;;;;4950827;28;75206;-68
2021/03/27 04:29:12;;;;;;;;;;;10.10;55.70;;;;;;4949632;28;74596;-68
2021/03/27 04:31:44;;;;;;;;;;;10.20;56.80;;;;;;4949426;28;76260;-68
2021/03/27 04:34:19;;;;;;;;;;;10.20;56.00;;;;;;4951013;28;75270;-67
2021/03/27 04:37:03;;;;;;;;;;;10.30;55.70;;;;;;4950868;28;74529;-67
2021/03/27 04:39:41;;;;;;;;;;;10.30;56.10;;;;;;4950764;28;75195;-68
2021/03/27 04:42:22;;;;;;;;;;;10.30;55.60;;;;;;4949041;28;77635;-67
2021/03/27 04:44:52;;;;;;;;;;;10.40;55.90;;;;;;4950662;28;75337;-67
2021/03/27 04:47:20;;;;;;;;;;;10.40;55.90;;;;;;4948950;28;76251;-67
2021/03/27 04:49:45;;;;;;;;;;;10.40;56.10;;;;;;4950723;28;74583;-68
2021/03/27 04:52:34;;;;;;;;;;;10.50;55.80;;;;;;4950698;28;74640;-68
2021/03/27 04:55:12;;;;;;;;;;;10.50;56.10;;;;;;4948202;28;77341;-68
2021/03/27 04:57:56;;;;;;;;;;;10.50;55.50;;;;;;4950257;28;75817;-68
2021/03/27 05:00:28;;;;;;;;;;;10.60;55.30;;;;;;4950570;28;75281;-69
2021/03/27 05:03:12;;;;;;;;;;;10.70;55.10;;;;;;4948807;28;75482;-67
2021/03/27 05:05:50;;;;;;;;;;;10.70;55.30;;;;;;4948956;28;75518;-67
2021/03/27 05:08:23;;;;;;;;;;;10.70;55.20;;;;;;4949750;28;76457;-69
2021/03/27 05:11:03;;;;;;;;;;;10.60;55.20;;;;;;4948792;28;75753;-67
2021/03/27 05:13:42;;;;;;;;;;;10.70;55.40;;;;;;4950235;28;74361;-67
2021/03/27 05:16:10;;;;;;;;;;;10.70;55.10;;;;;;4948853;28;76523;-67
2021/03/27 05:18:48;;;;;;;;;;;10.70;55.10;;;;;;4950487;28;74429;-68
2021/03/27 05:21:19;;;;;;;;;;;10.70;55.00;;;;;;4950885;28;75085;-68
2021/03/27 05:23:50;;;;;;;;;;;10.70;54.90;;;;;;4949720;28;75363;-67
2021/03/27 05:26:25;;;;;;;;;;;10.70;55.10;;;;;;4950081;28;75255;-68
2021/03/27 05:28:50;;;;;;;;;;;10.70;55.10;;;;;;4948493;28;76341;-68
2021/03/27 05:31:35;;;;;;;;;;;10.70;55.80;;;;;;4950183;28;74502;-66
2021/03/27 05:34:06;;;;;;;;;;;10.70;55.20;;;;;;4955684;28;75155;-67
2021/03/27 05:36:39;;;;;;;;;;;10.70;55.20;;;;;;4954855;28;77244;-66
2021/03/27 05:39:23;;;;;;;;;;;10.70;55.10;;;;;;4955112;28;75397;-67
2021/03/27 05:42:00;;;;;;;;;;;10.60;55.30;;;;;;4954838;28;76289;-68
2021/03/27 05:44:35;;;;;;;;;;;10.70;54.80;;;;;;4954820;28;77026;-67
2021/03/27 05:47:19;;;;;;;;;;;10.60;55.30;;;;;;4954734;28;75182;-65
2021/03/27 05:50:03;;;;;;;;;;;10.60;55.30;;;;;;4956417;28;75210;-68
2021/03/27 05:52:29;;;;;;;;;;;10.60;55.20;;;;;;4956192;28;74576;-67
2021/03/27 05:55:11;;;;;;;;;;;10.60;55.30;;;;;;4956250;28;75538;-66
2021/03/27 05:57:55;;;;;;;;;;;10.70;55.20;;;;;;4956026;28;75226;-66
2021/03/27 06:00:27;;;;;;;;;;;10.60;55.20;;;;;;4956097;28;74527;-67
2021/03/27 06:02:58;;;;;;;;;;;10.60;55.30;;;;;;4954310;28;77431;-65
2021/03/27 06:05:36;;;;;;;;;;;10.60;55.40;;;;;;4955771;28;75102;-66
2021/03/27 06:08:08;;;;;;;;;;;10.60;55.30;;;;;;4956188;28;75011;-67
2021/03/27 06:10:39;;;;;;;;;;;10.60;55.30;;;;;;4955678;28;75065;-66
2021/03/27 06:13:20;;;;;;;;;;;10.50;55.00;;;;;;4955791;28;75251;-66
2021/03/27 06:16:01;;;;;;;;;;;10.60;55.30;;;;;;4954361;28;77457;-66
2021/03/27 06:18:45;;;;;;;;;;;10.60;55.20;;;;;;4954603;28;77177;-66
2021/03/27 06:21:25;;;;;;;;;;;10.60;55.10;;;;;;4956380;28;74577;-67
2021/03/27 06:23:50;;;;;;;;;;;10.60;55.50;;;;;;4955543;28;75063;-65
2021/03/27 06:26:16;;;;;;;;;;;10.60;55.30;;;;;;4953997;28;77059;-66
2021/03/27 06:29:00;;;;;;;;;;;10.60;55.30;;;;;;4955506;28;75289;-67
2021/03/27 06:31:28;;;;;;;;;;;10.60;55.10;;;;;;4955768;28;74371;-68
2021/03/27 06:33:57;;;;;;;;;;;10.60;55.30;;;;;;4954125;28;75415;-67
2021/03/27 06:36:29;;;;;;;;;;;10.60;55.40;;;;;;4954052;28;77843;-65
2021/03/27 06:39:13;;;;;;;;;;;10.60;55.50;;;;;;4955334;28;75214;-67
2021/03/27 06:41:39;;;;;;;;;;;10.70;55.00;;;;;;4955189;28;75372;-65
2021/03/27 06:44:13;;;;;;;;;;;10.70;55.40;;;;;;4953806;28;75161;-65
2021/03/27 06:47:09;;;;;;;;;;;10.70;55.40;;;;;;4952224;28;75221;-66
2021/03/27 06:49:52;;;;;;;;;;;10.70;55.20;;;;;;4955273;28;74517;-66
2021/03/27 06:52:33;;;;;;;;;;;10.70;55.20;;;;;;4951941;28;75293;-66
2021/03/27 06:55:01;;;;;;;;;;;10.80;54.90;;;;;;4952155;28;75903;-67
2021/03/27 06:57:26;;;;;;;;;;;10.80;54.80;;;;;;4951819;28;74800;-67
2021/03/27 06:59:55;;;;;;;;;;;10.90;54.40;;;;;;4950475;28;78116;-66
2021/03/27 07:02:21;;;;;;;;;;;10.90;54.60;;;;;;4950635;28;77863;-69
2021/03/27 07:05:07;;;;;;;;;;;11.00;54.60;;;;;;4952459;28;75647;-68
2021/03/27 07:07:48;;;;;;;;;;;11.00;54.80;;;;;;4952151;28;75247;-66
2021/03/27 07:10:20;;;;;;;;;;;11.10;54.30;;;;;;4950814;28;77237;-66
2021/03/27 07:12:45;;;;;;;;;;;11.10;54.40;;;;;;4952000;28;75133;-67
2021/03/27 07:15:37;;;;;;;;;;;11.10;54.20;;;;;;4950377;28;76378;-68
2021/03/27 07:18:05;;;;;;;;;;;11.20;54.20;;;;;;4957817;28;75495;-67
2021/03/27 07:20:41;;;;;;;;;;;11.30;54.10;;;;;;4952026;28;74397;-67
2021/03/27 07:23:17;;;;;;;;;;;11.40;53.90;;;;;;4950060;28;76996;-67
2021/03/27 07:25:52;;;;;;;;;;;11.40;53.60;;;;;;4950085;28;78112;-67
2021/03/27 07:28:29;;;;;;;;;;;11.50;53.60;;;;;;4951681;28;75135;-66
2021/03/27 07:31:21;;;;;;;;;;;11.60;53.20;;;;;;4951622;28;75398;-66
2021/03/27 07:33:47;;;;;;;;;;;11.60;53.60;;;;;;4948820;28;76968;-67
2021/03/27 07:36:21;;;;;;;;;;;11.60;53.20;;;;;;4951808;28;75039;-69
2021/03/27 07:38:51;;;;;;;;;;;11.70;53.10;;;;;;4951548;28;75158;-68
2021/03/27 07:41:16;;;;;;;;;;;11.80;52.80;;;;;;4949945;28;77241;-67
2021/03/27 07:44:00;;;;;;;;;;;11.80;52.70;;;;;;4951480;28;75016;-67
2021/03/27 07:46:52;;;;;;;;;;;11.80;52.40;;;;;;4951452;28;74983;-67
2021/03/27 07:49:29;;;;;;;;;;;11.90;52.60;;;;;;4948974;28;77023;-67
2021/03/27 07:51:55;;;;;;;;;;;11.90;52.40;;;;;;4951729;28;75856;-66
2021/03/27 07:54:39;;;;;;;;;;;12.00;52.30;;;;;;4952154;28;75014;-67
2021/03/27 07:57:12;;;;;;;;;;;12.20;52.30;;;;;;4951585;28;75479;-68
2021/03/27 07:59:51;;;;;;;;;;;12.30;51.80;;;;;;4951780;28;75562;-67
2021/03/27 08:02:55;;;;;;;;;;;12.30;51.60;;;;;;4951873;28;75160;-67
2021/03/27 08:05:35;;;;;;;;;;;12.50;51.40;;;;;;4951706;28;77323;-67
2021/03/27 08:08:15;;;;;;;;;;;12.60;50.80;;;;;;4968928;28;75114;-68
2021/03/27 08:10:56;;;;;;;;;;;12.60;51.00;;;;;;4949398;28;78489;-67
2021/03/27 08:13:25;;;;;;;;;;;12.70;51.10;;;;;;4951367;28;74465;-68
2021/03/27 08:15:50;;;;;;;;;;;12.70;51.10;;;;;;4949662;28;77659;-69
2021/03/27 08:18:34;;;;;;;;;;;12.90;50.90;;;;;;4951131;28;75256;-67
2021/03/27 08:20:59;;;;;;;;;;;12.90;50.40;;;;;;4951461;28;75154;-68
2021/03/27 08:23:25;;;;;;;;;;;13.10;50.40;;;;;;4949515;28;77926;-67
2021/03/27 08:25:50;;;;;;;;;;;13.20;50.00;;;;;;4949730;28;75345;-71
2021/03/27 08:28:25;;;;;;;;;;;13.20;49.50;;;;;;4951196;28;74986;-66
2021/03/27 08:31:09;;;;;;;;;;;13.30;49.90;;;;;;4949865;28;76154;-67
2021/03/27 08:33:35;;;;;;;;;;;13.40;50.00;;;;;;4951075;28;75205;-65
2021/03/27 08:36:06;;;;;;;;;;;13.50;49.40;;;;;;4951283;28;75111;-63
2021/03/27 08:38:35;;;;;;;;;;;13.50;49.20;;;;;;4949813;28;75585;-63
2021/03/27 08:41:15;;;;;;;;;;;13.60;49.30;;;;;;4951368;28;74413;-63
2021/03/27 08:43:53;;;;;;;;;;;13.70;49.00;;;;;;4949886;28;75721;-64
2021/03/27 08:46:19;;;;;;;;;;;13.80;48.60;;;;;;4951715;28;74518;-62
2021/03/27 08:49:03;;;;;;;;;;;13.80;48.80;;;;;;4951087;28;74432;-65
2021/03/27 08:51:47;;;;;;;;;;;13.90;48.80;;;;;;4949606;28;75520;-66
2021/03/27 08:54:13;;;;;;;;;;;14.00;48.30;;;;;;4949279;28;76691;-62
2021/03/27 08:56:56;;;;;;;;;;;14.10;48.20;;;;;;4950802;28;74466;-64
2021/03/27 08:59:25;;;;;;;;;;;14.20;47.90;;;;;;4950487;28;75841;-61
2021/03/27 09:02:09;;;;;;;;;;;14.40;47.70;;;;;;4949314;28;77173;-62
2021/03/27 09:04:53;;;;;;;;;;;14.40;47.50;;;;;;4951426;28;75220;-62
2021/03/27 09:07:29;;;;;;;;;;;14.60;47.20;;;;;;4950410;28;74504;-64
2021/03/27 09:10:10;;;;;;;;;;;14.60;47.20;;;;;;4950529;28;74679;-62
2021/03/27 09:12:45;;;;;;;;;;;14.60;47.30;;;;;;4949077;28;75395;-66
2021/03/27 09:15:16;;;;;;;;;;;14.80;47.10;;;;;;4950581;28;75188;-61
2021/03/27 09:18:00;;;;;;;;;;;15.00;46.70;;;;;;4951023;28;74408;-62
2021/03/27 09:20:44;;;;;;;;;;;15.10;46.20;;;;;;4950539;28;75095;-62
2021/03/27 09:23:22;;;;;;;;;;;15.30;46.40;;;;;;4948731;28;75741;-66
2021/03/27 09:26:06;;;;;;;;;;;15.50;45.70;;;;;;4950742;28;74386;-63
2021/03/27 09:28:35;;;;;;;;;;;15.60;45.40;;;;;;4948872;28;76241;-62
2021/03/27 09:31:26;;;;;;;;;;;15.80;45.30;;;;;;4948424;28;75981;-62
2021/03/27 09:34:01;;;;;;;;;;;15.90;44.50;;;;;;4948700;28;76537;-63
2021/03/27 09:36:36;;;;;;;;;;;15.80;44.80;;;;;;4950525;28;74463;-61
2021/03/27 09:39:21;;;;;;;;;;;15.90;44.70;;;;;;4948717;28;77612;-61
2021/03/27 09:42:05;;;;;;;;;;;15.90;44.70;;;;;;4949733;28;75332;-62
2021/03/27 09:44:31;;;;;;;;;;;16.10;44.40;;;;;;4949924;28;75435;-62
2021/03/27 09:47:23;;;;;;;;;;;16.20;44.10;;;;;;4948748;28;78541;-63
2021/03/27 09:50:11;;;;;;;;;;;16.30;43.80;;;;;;4955709;28;75139;-64
2021/03/27 09:52:58;;;;;;;;;;;16.40;43.60;;;;;;4957576;28;75535;-62
2021/03/27 09:55:33;;;;;;;;;;;16.50;43.40;;;;;;4948252;28;78553;-62
2021/03/27 09:58:03;;;;;;;;;;;16.70;43.50;;;;;;4950108;28;74599;-62
2021/03/27 10:00:47;;;;;;;;;;;17.00;42.90;;;;;;4948454;28;77966;-63
2021/03/27 10:03:16;;;;;;;;;;;17.00;42.70;;;;;;4950225;28;75345;-63
2021/03/27 10:05:51;;;;;;;;;;;17.20;42.60;;;;;;4950310;28;76298;-62
2021/03/27 10:08:20;;;;;;;;;;;17.30;42.30;;;;;;4949745;28;76527;-62
2021/03/27 10:11:04;;;;;;;;;;;17.40;41.90;;;;;;4948414;28;76041;-66
2021/03/27 10:13:49;;;;;;;;;;;17.40;41.90;;;;;;4949959;28;74967;-63
2021/03/27 10:16:18;;;;;;;;;;;17.50;41.60;;;;;;4950320;28;74507;-63
2021/03/27 10:18:50;;;;;;;;;;;17.70;41.30;;;;;;4948917;28;76625;-65
2021/03/27 10:21:18;;;;;;;;;;;17.80;41.30;;;;;;4952803;28;75734;-64
2021/03/27 10:23:56;;;;;;;;;;;17.90;41.00;;;;;;4953193;28;74478;-69
2021/03/27 10:26:30;;;;;;;;;;;18.10;40.80;;;;;;4952743;28;75158;-64
2021/03/27 10:29:12;;;;;;;;;;;18.30;40.40;;;;;;4952762;28;75199;-67
2021/03/27 10:31:41;;;;;;;;;;;18.40;40.10;;;;;;4953163;28;75139;-70
2021/03/27 10:34:26;;;;;;;;;;;18.50;40.10;;;;;;4953280;28;74540;-68
2021/03/27 10:36:57;;;;;;;;;;;18.60;39.90;;;;;;4953543;28;75158;-71
2021/03/27 10:39:41;;;;;;;;;;;18.70;39.90;;;;;;4953351;28;75418;-65
2021/03/27 10:42:20;;;;;;;;;;;18.80;39.40;;;;;;4951048;28;74835;-64
2021/03/27 10:44:49;;;;;;;;;;;18.90;39.40;;;;;;4952622;28;75171;-61
2021/03/27 10:47:19;;;;;;;;;;;19.10;39.20;;;;;;4952246;28;75322;-68
2021/03/27 10:49:48;;;;;;;;;;;19.30;38.70;;;;;;4951094;28;76395;-62
2021/03/27 10:52:27;;;;;;;;;;;19.40;37.60;;;;;;4950422;28;74738;-62
2021/03/27 10:55:19;;;;;;;;;;;19.30;38.30;;;;;;4950539;28;77290;-65
2021/03/27 10:57:45;;;;;;;;;;;19.30;38.60;;;;;;4949744;28;75544;-63
2021/03/27 11:00:29;;;;;;;;;;;19.50;38.10;;;;;;4952504;28;75795;-63
2021/03/27 11:03:25;;;;;;;;;;;19.50;38.20;;;;;;4950648;28;78232;-65
2021/03/27 11:06:09;;;;;;;;;;;19.70;38.10;;;;;;4951000;28;75469;-63
2021/03/27 11:08:43;;;;;;;;;;;20.00;37.70;;;;;;4952083;28;75344;-63
2021/03/27 11:11:15;;;;;;;;;;;20.40;37.40;;;;;;4952032;28;75656;-65
2021/03/27 11:13:40;;;;;;;;;;;20.70;36.80;;;;;;4950902;28;76964;-64
2021/03/27 11:16:20;;;;;;;;;;;20.90;36.20;;;;;;4950295;28;77249;-68
2021/03/27 11:19:01;;;;;;;;;;;21.20;35.80;;;;;;4951903;28;75187;-63
2021/03/27 11:21:32;;;;;;;;;;;21.40;35.40;;;;;;4951832;28;75311;-62
2021/03/27 11:23:58;;;;;;;;;;;21.70;35.30;;;;;;4950018;28;75235;-64
2021/03/27 11:26:29;;;;;;;;;;;22.10;34.90;;;;;;4951500;28;75215;-65
2021/03/27 11:28:58;;;;;;;;;;;22.50;34.00;;;;;;4950298;28;75825;-67
2021/03/27 11:31:26;;;;;;;;;;;22.80;33.90;;;;;;4950983;28;74397;-63
2021/03/27 11:34:01;;;;;;;;;;;23.30;32.90;;;;;;4950241;28;75018;-65
2021/03/27 11:36:48;;;;;;;;;;;24.10;32.00;;;;;;4950678;28;75629;-63
2021/03/27 11:39:22;;;;;;;;;;;25.40;30.70;;;;;;4951626;28;75163;-63
2021/03/27 11:42:08;;;;;;;;;;;25.90;29.50;;;;;;4950723;28;76480;-65
2021/03/27 11:44:42;;;;;;;;;;;25.00;30.30;;;;;;4953865;28;74643;-64
2021/03/27 11:47:16;;;;;;;;;;;24.20;31.30;;;;;;4952332;28;75333;-65
2021/03/27 11:49:47;;;;;;;;;;;23.60;32.20;;;;;;4949781;28;77102;-64
2021/03/27 11:52:19;;;;;;;;;;;23.20;32.60;;;;;;4950503;28;77759;-63
2021/03/27 11:55:03;;;;;;;;;;;23.10;33.20;;;;;;4950180;28;74768;-63
2021/03/27 11:57:32;;;;;;;;;;;23.20;32.70;;;;;;4951343;28;76356;-69
2021/03/27 12:03:09;;;;;;;;;;;23.70;32.60;;;;;;4952507;28;74874;-63
2021/03/27 12:05:47;;;;;;;;;;;24.10;31.90;;;;;;4950380;28;78531;-63
2021/03/27 12:08:15;;;;;;;;;;;24.30;31.50;;;;;;4951446;28;75199;-67
2021/03/27 12:10:52;;;;;;;;;;;24.30;31.40;;;;;;4951635;28;75204;-68
2021/03/27 12:13:24;;;;;;;;;;;24.10;31.90;;;;;;4951466;28;75133;-63
2021/03/27 12:16:01;;;;;;;;;;;23.90;32.20;;;;;;4951522;28;74372;-70
2021/03/27 12:18:46;;;;;;;;;;;23.60;32.80;;;;;;4950956;28;76232;-68
2021/03/27 12:21:23;;;;;;;;;;;23.50;32.70;;;;;;4951620;28;75224;-66
2021/03/27 12:23:49;;;;;;;;;;;23.40;32.80;;;;;;4951236;28;75043;-63
2021/03/27 12:26:28;;;;;;;;;;;23.50;32.90;;;;;;4949746;28;77024;-69
2021/03/27 12:29:03;;;;;;;;;;;23.50;32.40;;;;;;4950965;28;75316;-64
2021/03/27 12:31:32;;;;;;;;;;;23.30;32.80;;;;;;4949994;28;76079;-64
2021/03/27 12:34:10;;;;;;;;;;;23.20;33.10;;;;;;4949910;28;76652;-63
2021/03/27 12:36:55;;;;;;;;;;;23.10;33.00;;;;;;4950950;28;75726;-66
2021/03/27 12:39:28;;;;;;;;;;;22.90;33.20;;;;;;4949844;28;74755;-64
2021/03/27 12:41:54;;;;;;;;;;;22.90;33.50;;;;;;4950343;28;75133;-63
2021/03/27 12:44:40;;;;;;;;;;;23.10;33.50;;;;;;4950823;28;74878;-63
2021/03/27 12:47:29;;;;;;;;;;;23.40;33.30;;;;;;4951101;28;74627;-67
2021/03/27 12:50:20;;;;;;;;;;;23.80;32.70;;;;;;4948562;28;77213;-65
2021/03/27 12:52:46;;;;;;;;;;;24.20;32.20;;;;;;4951105;28;74886;-63
2021/03/27 12:55:25;;;;;;;;;;;24.50;32.10;;;;;;4949317;28;76948;-62
2021/03/27 12:57:56;;;;;;;;;;;24.50;31.70;;;;;;4950604;28;75285;-63
2021/03/27 13:00:44;;;;;;;;;;;24.50;31.90;;;;;;4949807;28;76090;-65
2021/03/27 13:03:29;;;;;;;;;;;24.60;31.70;;;;;;4951594;28;75311;-64
2021/03/27 13:06:09;;;;;;;;;;;25.10;30.90;;;;;;4949430;28;76060;-63
2021/03/27 13:08:39;;;;;;;;;;;25.70;30.80;;;;;;4949612;28;74521;-62
2021/03/27 13:11:08;;;;;;;;;;;26.90;29.20;;;;;;4952250;28;74586;-63
2021/03/27 13:13:39;;;;;;;;;;;27.40;28.20;;;;;;4950975;28;75008;-62
2021/03/27 13:16:09;;;;;;;;;;;27.00;28.50;;;;;;4952201;28;75285;-65
2021/03/27 13:18:49;;;;;;;;;;;26.70;28.80;;;;;;4952503;28;75376;-63
2021/03/27 13:21:34;;;;;;;;;;;26.70;28.90;;;;;;4951345;28;76001;-62
2021/03/27 13:24:20;;;;;;;;;;;26.50;28.30;;;;;;4953051;28;75836;-66
2021/03/27 13:26:47;;;;;;;;;;;26.50;28.90;;;;;;4951424;28;75232;-64
2021/03/27 13:29:31;;;;;;;;;;;26.60;28.60;;;;;;4951355;28;75581;-66
2021/03/27 13:31:59;;;;;;;;;;;26.50;28.80;;;;;;4951480;28;76492;-63
2021/03/27 13:34:30;;;;;;;;;;;26.40;28.50;;;;;;4950026;28;77268;-69
2021/03/27 13:36:58;;;;;;;;;;;26.40;29.10;;;;;;4952705;28;74911;-68
2021/03/27 13:39:47;;;;;;;;;;;26.70;29.00;;;;;;4948961;28;75315;-66
2021/03/27 13:42:31;;;;;;;;;;;27.00;28.10;;;;;;4952875;28;75176;-67
2021/03/27 13:45:15;;;;;;;;;;;26.90;28.50;;;;;;4950001;28;74911;-63
2021/03/27 13:47:46;;;;;;;;;;;27.00;28.00;;;;;;4950308;28;75147;-66
2021/03/27 13:50:14;;;;;;;;;;;27.30;28.10;;;;;;4949871;28;75763;-67
2021/03/27 13:52:53;;;;;;;;;;;27.50;27.90;;;;;;4948641;28;78241;-67
2021/03/27 13:55:37;;;;;;;;;;;27.50;27.80;;;;;;4953731;28;74412;-66
2021/03/27 13:58:23;;;;;;;;;;;27.40;28.10;;;;;;4952289;28;76173;-68
2021/03/27 14:00:59;;;;;;;;;;;27.20;28.00;;;;;;4952284;28;75274;-67
2021/03/27 14:03:31;;;;;;;;;;;27.00;28.20;;;;;;4951051;28;77195;-64
2021/03/27 14:05:59;;;;;;;;;;;27.30;28.40;;;;;;4952667;28;75167;-62
2021/03/27 14:08:31;;;;;;;;;;;27.80;27.70;;;;;;4951229;28;76427;-63
2021/03/27 14:11:02;;;;;;;;;;;27.90;27.30;;;;;;4951112;28;75285;-65
2021/03/27 14:13:46;;;;;;;;;;;27.80;27.60;;;;;;4950745;28;75318;-64
2021/03/27 14:16:18;;;;;;;;;;;27.80;27.50;;;;;;4952346;28;75092;-64
2021/03/27 14:18:44;;;;;;;;;;;27.90;27.30;;;;;;4952723;28;74584;-63
2021/03/27 14:21:28;;;;;;;;;;;28.10;27.30;;;;;;4952529;28;74553;-67
2021/03/27 14:24:05;;;;;;;;;;;28.20;27.00;;;;;;4950573;28;75551;-68
2021/03/27 14:26:36;;;;;;;;;;;28.40;27.00;;;;;;4952696;28;74972;-63
2021/03/27 14:29:14;;;;;;;;;;;28.60;26.60;;;;;;4952330;28;74942;-64
2021/03/27 14:31:39;;;;;;;;;;;28.50;26.70;;;;;;4951930;28;75201;-66
2021/03/27 14:34:07;;;;;;;;;;;28.50;26.70;;;;;;4952594;28;75068;-65
2021/03/27 14:36:42;;;;;;;;;;;28.40;26.80;;;;;;4950517;28;75979;-66
2021/03/27 14:39:08;;;;;;;;;;;28.40;27.00;;;;;;4950812;28;75927;-63
2021/03/27 14:41:39;;;;;;;;;;;28.40;26.70;;;;;;4952295;28;74490;-63
2021/03/27 14:44:22;;;;;;;;;;;28.40;26.90;;;;;;4950829;28;75586;-63
2021/03/27 14:46:53;;;;;;;;;;;28.90;26.80;;;;;;4952151;28;75238;-64
2021/03/27 14:49:21;;;;;;;;;;;29.50;26.10;;;;;;4950639;28;77157;-63
2021/03/27 14:52:06;;;;;;;;;;;29.50;26.10;;;;;;4950785;28;77762;-63
2021/03/27 14:54:34;;;;;;;;;;;29.40;25.90;;;;;;4950568;28;77213;-64
2021/03/27 14:57:12;;;;;;;;;;;29.30;25.70;;;;;;4952539;28;75301;-64
2021/03/27 14:59:40;;;;;;;;;;;29.50;25.40;;;;;;4950307;28;77696;-63
2021/03/27 15:02:24;;;;;;;;;;;29.70;25.40;;;;;;4952083;28;75300;-62
2021/03/27 15:04:49;;;;;;;;;;;29.70;25.60;;;;;;4949345;28;74544;-63
2021/03/27 15:07:19;;;;;;;;;;;29.70;25.50;;;;;;4951945;28;75477;-63